Argenta, Illinois
Current Conditions -  °F | °C
As of 12:54 AM on Saturday 01 Nov 2014 (Local Time) from KDEC Reporting Station
Clear Clear  
Wind Chill: 22°   Ceiling: Unl
Heat Index: 32°   Visibility: 10mi
Dew Point: 22°   Wind: 14mph
Humidity: 66%   Direction: 350°N
Pressure: 30.34"   Gusts: NA
Location:  39.98°N, 88.82°W
Report Text: KDEC 010554Z AUTO 35012KT 10SM CLR 00/M06 A3034 RMK AO2 PK WND 36028/0459 SLP280 T00001056 10033 20000 400830000 53002 TSNO
Loading
Personal Weather Stations






























Interactive Weather Map
Tropical Storm Tracking
New forecast layout! Learn more

10-Day Weather Forecast

Advertisements
Track Severe Weather on mobile